sensor_id;sensor_type;location;lat;lon;timestamp;temperature;humidity
20057;DHT22;10189;49.546;7.906;2022-12-18T00:01:31;-12.40;99.90
20057;DHT22;10189;49.546;7.906;2022-12-18T00:04:02;-12.40;99.90
20057;DHT22;10189;49.546;7.906;2022-12-18T00:06:30;-12.30;99.90
20057;DHT22;10189;49.546;7.906;2022-12-18T00:08:58;-12.20;99.90
20057;DHT22;10189;49.546;7.906;2022-12-18T00:11:27;-12.10;99.90
20057;DHT22;10189;49.546;7.906;2022-12-18T00:13:56;-11.90;99.90
20057;DHT22;10189;49.546;7.906;2022-12-18T00:16:25;-11.80;99.90
20057;DHT22;10189;49.546;7.906;2022-12-18T00:18:56;-11.70;99.90
20057;DHT22;10189;49.546;7.906;2022-12-18T00:21:22;-11.60;99.90
20057;DHT22;10189;49.546;7.906;2022-12-18T00:23:49;-11.50;99.90
20057;DHT22;10189;49.546;7.906;2022-12-18T00:26:20;-11.40;99.90
20057;DHT22;10189;49.546;7.906;2022-12-18T00:28:51;-11.40;99.90
20057;DHT22;10189;49.546;7.906;2022-12-18T00:31:21;-11.30;99.90
20057;DHT22;10189;49.546;7.906;2022-12-18T00:33:54;-11.20;99.90
20057;DHT22;10189;49.546;7.906;2022-12-18T00:36:24;-11.00;99.90
20057;DHT22;10189;49.546;7.906;2022-12-18T00:38:55;-11.00;99.90
20057;DHT22;10189;49.546;7.906;2022-12-18T00:41:23;-10.90;99.90
20057;DHT22;10189;49.546;7.906;2022-12-18T00:44:10;-10.90;99.90
20057;DHT22;10189;49.546;7.906;2022-12-18T00:46:38;-10.80;99.90
20057;DHT22;10189;49.546;7.906;2022-12-18T00:49:05;-10.80;99.90
20057;DHT22;10189;49.546;7.906;2022-12-18T00:51:31;-10.80;99.90
20057;DHT22;10189;49.546;7.906;2022-12-18T00:53:57;-10.80;99.90
20057;DHT22;10189;49.546;7.906;2022-12-18T00:56:23;-10.70;99.90
20057;DHT22;10189;49.546;7.906;2022-12-18T00:58:49;-10.70;99.90
20057;DHT22;10189;49.546;7.906;2022-12-18T01:01:16;-10.70;99.90
20057;DHT22;10189;49.546;7.906;2022-12-18T01:03:43;-10.60;99.90
20057;DHT22;10189;49.546;7.906;2022-12-18T01:06:12;-10.60;99.90
20057;DHT22;10189;49.546;7.906;2022-12-18T01:08:39;-10.60;99.90
20057;DHT22;10189;49.546;7.906;2022-12-18T01:11:10;-10.60;99.90
20057;DHT22;10189;49.546;7.906;2022-12-18T01:13:38;-10.50;99.90
20057;DHT22;10189;49.546;7.906;2022-12-18T01:16:04;-10.60;99.90
20057;DHT22;10189;49.546;7.906;2022-12-18T01:18:30;-10.50;99.90
20057;DHT22;10189;49.546;7.906;2022-12-18T01:20:58;-10.50;99.90
20057;DHT22;10189;49.546;7.906;2022-12-18T01:23:24;-10.50;99.90
20057;DHT22;10189;49.546;7.906;2022-12-18T01:25:52;-10.40;99.90
20057;DHT22;10189;49.546;7.906;2022-12-18T01:28:18;-10.40;99.90
20057;DHT22;10189;49.546;7.906;2022-12-18T01:30:44;-10.30;99.90
20057;DHT22;10189;49.546;7.906;2022-12-18T01:33:09;-10.40;99.90
20057;DHT22;10189;49.546;7.906;2022-12-18T01:35:40;-10.50;99.90
20057;DHT22;10189;49.546;7.906;2022-12-18T01:38:07;-10.50;99.90
20057;DHT22;10189;49.546;7.906;2022-12-18T01:40:33;-10.50;99.90
20057;DHT22;10189;49.546;7.906;2022-12-18T01:42:59;-10.40;99.90
20057;DHT22;10189;49.546;7.906;2022-12-18T01:45:31;-10.50;99.90
20057;DHT22;10189;49.546;7.906;2022-12-18T01:48:06;-10.50;99.90
20057;DHT22;10189;49.546;7.906;2022-12-18T01:50:40;-10.60;99.90
20057;DHT22;10189;49.546;7.906;2022-12-18T01:53:15;-10.60;99.90
20057;DHT22;10189;49.546;7.906;2022-12-18T01:55:56;-10.40;99.90
20057;DHT22;10189;49.546;7.906;2022-12-18T01:59:13;-10.50;99.90
20057;DHT22;10189;49.546;7.906;2022-12-18T02:01:14;-10.40;99.90
20057;DHT22;10189;49.546;7.906;2022-12-18T02:03:43;-10.40;99.90
20057;DHT22;10189;49.546;7.906;2022-12-18T02:06:15;-10.40;99.90
20057;DHT22;10189;49.546;7.906;2022-12-18T02:14:44;-10.40;99.90
20057;DHT22;10189;49.546;7.906;2022-12-18T02:17:22;-10.40;99.90
20057;DHT22;10189;49.546;7.906;2022-12-18T02:25:51;-10.40;99.90
20057;DHT22;10189;49.546;7.906;2022-12-18T02:28:38;-10.30;99.90
20057;DHT22;10189;49.546;7.906;2022-12-18T02:31:13;-10.20;99.90
20057;DHT22;10189;49.546;7.906;2022-12-18T02:33:44;-10.20;99.90
20057;DHT22;10189;49.546;7.906;2022-12-18T02:36:12;-10.20;99.90
20057;DHT22;10189;49.546;7.906;2022-12-18T02:38:44;-10.30;99.90
20057;DHT22;10189;49.546;7.906;2022-12-18T02:41:14;-10.30;99.90
20057;DHT22;10189;49.546;7.906;2022-12-18T02:43:52;-10.30;99.90
20057;DHT22;10189;49.546;7.906;2022-12-18T02:46:42;-10.40;99.90
20057;DHT22;10189;49.546;7.906;2022-12-18T03:01:21;-10.50;99.90
20057;DHT22;10189;49.546;7.906;2022-12-18T03:03:56;-10.50;99.90
20057;DHT22;10189;49.546;7.906;2022-12-18T03:06:46;-10.50;99.90
20057;DHT22;10189;49.546;7.906;2022-12-18T03:09:19;-10.50;99.90
20057;DHT22;10189;49.546;7.906;2022-12-18T03:11:54;-10.50;99.90
20057;DHT22;10189;49.546;7.906;2022-12-18T03:14:41;-10.40;99.90
20057;DHT22;10189;49.546;7.906;2022-12-18T03:17:15;-10.30;99.90
20057;DHT22;10189;49.546;7.906;2022-12-18T03:19:46;-10.40;99.90
20057;DHT22;10189;49.546;7.906;2022-12-18T03:22:15;-10.30;99.90
20057;DHT22;10189;49.546;7.906;2022-12-18T03:24:48;-10.30;99.90
20057;DHT22;10189;49.546;7.906;2022-12-18T03:27:18;-10.30;99.90
20057;DHT22;10189;49.546;7.906;2022-12-18T03:29:54;-10.30;99.90
20057;DHT22;10189;49.546;7.906;2022-12-18T03:32:47;-10.40;99.90
20057;DHT22;10189;49.546;7.906;2022-12-18T03:35:24;-10.40;99.90
20057;DHT22;10189;49.546;7.906;2022-12-18T03:37:55;-10.40;99.90
20057;DHT22;10189;49.546;7.906;2022-12-18T03:40:29;-10.50;99.90
20057;DHT22;10189;49.546;7.906;2022-12-18T03:43:11;-10.40;99.90
20057;DHT22;10189;49.546;7.906;2022-12-18T03:45:59;-10.40;99.90
20057;DHT22;10189;49.546;7.906;2022-12-18T03:48:44;-10.40;99.90
20057;DHT22;10189;49.546;7.906;2022-12-18T03:51:28;-10.50;99.90
20057;DHT22;10189;49.546;7.906;2022-12-18T03:54:04;-10.50;99.90
20057;DHT22;10189;49.546;7.906;2022-12-18T03:56:42;-10.50;99.90
20057;DHT22;10189;49.546;7.906;2022-12-18T03:59:15;-10.50;99.90
20057;DHT22;10189;49.546;7.906;2022-12-18T04:01:47;-10.50;99.90
20057;DHT22;10189;49.546;7.906;2022-12-18T04:04:17;-10.50;99.90
20057;DHT22;10189;49.546;7.906;2022-12-18T04:06:47;-10.40;99.90
20057;DHT22;10189;49.546;7.906;2022-12-18T04:09:18;-10.40;99.90
20057;DHT22;10189;49.546;7.906;2022-12-18T04:11:46;-10.40;99.90
20057;DHT22;10189;49.546;7.906;2022-12-18T04:14:14;-10.50;99.90
20057;DHT22;10189;49.546;7.906;2022-12-18T04:16:41;-10.60;99.90
20057;DHT22;10189;49.546;7.906;2022-12-18T04:19:10;-10.60;99.90
20057;DHT22;10189;49.546;7.906;2022-12-18T04:21:40;-10.70;99.90
20057;DHT22;10189;49.546;7.906;2022-12-18T04:24:09;-10.60;99.90
20057;DHT22;10189;49.546;7.906;2022-12-18T04:26:37;-10.60;99.90
20057;DHT22;10189;49.546;7.906;2022-12-18T04:29:20;-10.50;99.90
20057;DHT22;10189;49.546;7.906;2022-12-18T04:31:46;-10.50;99.90
20057;DHT22;10189;49.546;7.906;2022-12-18T04:34:12;-10.50;99.90
20057;DHT22;10189;49.546;7.906;2022-12-18T04:36:48;-10.50;99.90
20057;DHT22;10189;49.546;7.906;2022-12-18T04:39:14;-10.60;99.90
20057;DHT22;10189;49.546;7.906;2022-12-18T04:41:40;-10.50;99.90
20057;DHT22;10189;49.546;7.906;2022-12-18T04:44:08;-10.60;99.90
20057;DHT22;10189;49.546;7.906;2022-12-18T04:46:34;-10.60;99.90
20057;DHT22;10189;49.546;7.906;2022-12-18T04:49:00;-10.60;99.90
20057;DHT22;10189;49.546;7.906;2022-12-18T04:51:26;-10.60;99.90
20057;DHT22;10189;49.546;7.906;2022-12-18T04:53:52;-10.60;99.90
20057;DHT22;10189;49.546;7.906;2022-12-18T04:56:18;-10.70;99.90
20057;DHT22;10189;49.546;7.906;2022-12-18T04:58:45;-10.70;99.90
20057;DHT22;10189;49.546;7.906;2022-12-18T05:01:13;-10.60;99.90
20057;DHT22;10189;49.546;7.906;2022-12-18T05:03:41;-10.60;99.90
20057;DHT22;10189;49.546;7.906;2022-12-18T05:06:08;-10.60;99.90
20057;DHT22;10189;49.546;7.906;2022-12-18T05:08:35;-10.70;99.90
20057;DHT22;10189;49.546;7.906;2022-12-18T05:11:03;-10.60;99.90
20057;DHT22;10189;49.546;7.906;2022-12-18T05:13:37;-10.60;99.90
20057;DHT22;10189;49.546;7.906;2022-12-18T05:16:04;-10.60;99.90
20057;DHT22;10189;49.546;7.906;2022-12-18T05:18:30;-10.60;99.90
20057;DHT22;10189;49.546;7.906;2022-12-18T05:20:57;-10.60;99.90
20057;DHT22;10189;49.546;7.906;2022-12-18T05:23:24;-10.60;99.90
20057;DHT22;10189;49.546;7.906;2022-12-18T05:25:55;-10.60;99.90
20057;DHT22;10189;49.546;7.906;2022-12-18T05:28:26;-10.60;99.90
20057;DHT22;10189;49.546;7.906;2022-12-18T05:30:56;-10.50;99.90
20057;DHT22;10189;49.546;7.906;2022-12-18T05:33:25;-10.50;99.90
20057;DHT22;10189;49.546;7.906;2022-12-18T05:35:54;-10.50;99.90
20057;DHT22;10189;49.546;7.906;2022-12-18T05:38:23;-10.50;99.90
20057;DHT22;10189;49.546;7.906;2022-12-18T05:40:50;-10.60;99.90
20057;DHT22;10189;49.546;7.906;2022-12-18T05:43:18;-10.60;99.90
20057;DHT22;10189;49.546;7.906;2022-12-18T05:45:44;-10.70;99.90
20057;DHT22;10189;49.546;7.906;2022-12-18T05:48:11;-10.60;99.90
20057;DHT22;10189;49.546;7.906;2022-12-18T05:50:38;-10.60;99.90
20057;DHT22;10189;49.546;7.906;2022-12-18T05:53:06;-10.70;99.90
20057;DHT22;10189;49.546;7.906;2022-12-18T05:55:34;-10.70;99.90
20057;DHT22;10189;49.546;7.906;2022-12-18T05:58:02;-10.70;99.90
20057;DHT22;10189;49.546;7.906;2022-12-18T06:00:29;-10.80;99.90
20057;DHT22;10189;49.546;7.906;2022-12-18T06:02:57;-10.80;99.90
20057;DHT22;10189;49.546;7.906;2022-12-18T06:05:24;-10.80;99.90
20057;DHT22;10189;49.546;7.906;2022-12-18T06:07:51;-10.80;99.90
20057;DHT22;10189;49.546;7.906;2022-12-18T06:10:17;-10.70;99.90
20057;DHT22;10189;49.546;7.906;2022-12-18T06:12:43;-10.70;99.90
20057;DHT22;10189;49.546;7.906;2022-12-18T06:15:09;-10.70;99.90
20057;DHT22;10189;49.546;7.906;2022-12-18T06:17:36;-10.70;99.90
20057;DHT22;10189;49.546;7.906;2022-12-18T06:20:03;-10.80;99.90
20057;DHT22;10189;49.546;7.906;2022-12-18T06:22:33;-10.90;99.90
20057;DHT22;10189;49.546;7.906;2022-12-18T06:25:00;-10.80;99.90
20057;DHT22;10189;49.546;7.906;2022-12-18T06:27:26;-10.90;99.90
20057;DHT22;10189;49.546;7.906;2022-12-18T06:29:52;-10.90;99.90
20057;DHT22;10189;49.546;7.906;2022-12-18T06:32:18;-10.90;99.90
20057;DHT22;10189;49.546;7.906;2022-12-18T06:34:44;-11.00;99.90
20057;DHT22;10189;49.546;7.906;2022-12-18T06:37:09;-11.00;99.90
20057;DHT22;10189;49.546;7.906;2022-12-18T06:39:35;-11.10;99.90
20057;DHT22;10189;49.546;7.906;2022-12-18T06:42:01;-11.20;99.90
20057;DHT22;10189;49.546;7.906;2022-12-18T06:44:28;-11.20;99.90
20057;DHT22;10189;49.546;7.906;2022-12-18T06:46:54;-11.20;99.90
20057;DHT22;10189;49.546;7.906;2022-12-18T06:49:20;-11.00;99.90
20057;DHT22;10189;49.546;7.906;2022-12-18T06:51:46;-11.00;99.90
20057;DHT22;10189;49.546;7.906;2022-12-18T06:54:12;-11.00;99.90
20057;DHT22;10189;49.546;7.906;2022-12-18T06:56:38;-11.00;99.90
20057;DHT22;10189;49.546;7.906;2022-12-18T06:59:04;-11.00;99.90
20057;DHT22;10189;49.546;7.906;2022-12-18T07:01:30;-11.10;99.90
20057;DHT22;10189;49.546;7.906;2022-12-18T07:03:57;-11.00;99.90
20057;DHT22;10189;49.546;7.906;2022-12-18T07:06:25;-11.00;99.90
20057;DHT22;10189;49.546;7.906;2022-12-18T07:08:53;-11.00;99.90
20057;DHT22;10189;49.546;7.906;2022-12-18T07:11:19;-10.90;99.90
20057;DHT22;10189;49.546;7.906;2022-12-18T07:13:46;-10.90;99.90
20057;DHT22;10189;49.546;7.906;2022-12-18T07:16:14;-10.90;99.90
20057;DHT22;10189;49.546;7.906;2022-12-18T07:18:45;-10.90;99.90
20057;DHT22;10189;49.546;7.906;2022-12-18T07:21:14;-10.90;99.90
20057;DHT22;10189;49.546;7.906;2022-12-18T07:23:41;-10.90;99.90
20057;DHT22;10189;49.546;7.906;2022-12-18T07:26:10;-10.90;99.90
20057;DHT22;10189;49.546;7.906;2022-12-18T07:28:38;-10.90;99.90
20057;DHT22;10189;49.546;7.906;2022-12-18T07:31:06;-11.00;99.90
20057;DHT22;10189;49.546;7.906;2022-12-18T07:33:35;-11.00;99.90
20057;DHT22;10189;49.546;7.906;2022-12-18T07:36:06;-11.00;99.90
20057;DHT22;10189;49.546;7.906;2022-12-18T07:38:34;-10.90;99.90
20057;DHT22;10189;49.546;7.906;2022-12-18T07:41:08;-10.90;99.90
20057;DHT22;10189;49.546;7.906;2022-12-18T07:43:36;-10.80;99.90
20057;DHT22;10189;49.546;7.906;2022-12-18T07:46:03;-10.70;99.90
20057;DHT22;10189;49.546;7.906;2022-12-18T07:48:30;-10.60;99.90
20057;DHT22;10189;49.546;7.906;2022-12-18T07:51:00;-10.50;99.90
20057;DHT22;10189;49.546;7.906;2022-12-18T07:53:27;-10.40;99.90
20057;DHT22;10189;49.546;7.906;2022-12-18T07:55:57;-10.40;99.90
20057;DHT22;10189;49.546;7.906;2022-12-18T07:58:24;-10.30;99.90
20057;DHT22;10189;49.546;7.906;2022-12-18T08:00:50;-10.30;99.90
20057;DHT22;10189;49.546;7.906;2022-12-18T08:03:16;-10.20;99.90
20057;DHT22;10189;49.546;7.906;2022-12-18T08:05:42;-10.10;99.90
20057;DHT22;10189;49.546;7.906;2022-12-18T08:08:07;-10.00;99.90
20057;DHT22;10189;49.546;7.906;2022-12-18T08:10:33;-9.90;99.90
20057;DHT22;10189;49.546;7.906;2022-12-18T08:12:59;-9.90;99.90
20057;DHT22;10189;49.546;7.906;2022-12-18T08:15:25;-9.80;99.90
20057;DHT22;10189;49.546;7.906;2022-12-18T08:17:51;-9.70;99.90
20057;DHT22;10189;49.546;7.906;2022-12-18T08:20:17;-9.80;99.90
20057;DHT22;10189;49.546;7.906;2022-12-18T08:22:44;-9.70;99.90
20057;DHT22;10189;49.546;7.906;2022-12-18T08:25:10;-9.70;99.90
20057;DHT22;10189;49.546;7.906;2022-12-18T08:27:36;-9.80;99.90
20057;DHT22;10189;49.546;7.906;2022-12-18T08:30:03;-9.70;99.90
20057;DHT22;10189;49.546;7.906;2022-12-18T08:32:30;-9.70;99.90
20057;DHT22;10189;49.546;7.906;2022-12-18T08:34:56;-9.60;99.90
20057;DHT22;10189;49.546;7.906;2022-12-18T08:37:21;-9.60;99.90
20057;DHT22;10189;49.546;7.906;2022-12-18T08:39:47;-9.60;99.90
20057;DHT22;10189;49.546;7.906;2022-12-18T08:42:13;-9.50;99.90
20057;DHT22;10189;49.546;7.906;2022-12-18T08:44:59;-9.40;99.90
20057;DHT22;10189;49.546;7.906;2022-12-18T08:47:25;-9.30;99.90
20057;DHT22;10189;49.546;7.906;2022-12-18T08:49:51;-9.20;99.90
20057;DHT22;10189;49.546;7.906;2022-12-18T08:52:17;-9.20;99.90
20057;DHT22;10189;49.546;7.906;2022-12-18T08:54:43;-9.00;99.90
20057;DHT22;10189;49.546;7.906;2022-12-18T08:57:09;-8.90;99.90
20057;DHT22;10189;49.546;7.906;2022-12-18T08:59:35;-8.80;99.60
20057;DHT22;10189;49.546;7.906;2022-12-18T09:02:01;-8.80;99.10
20057;DHT22;10189;49.546;7.906;2022-12-18T09:04:26;-8.70;99.10
20057;DHT22;10189;49.546;7.906;2022-12-18T09:06:52;-8.70;99.00
20057;DHT22;10189;49.546;7.906;2022-12-18T09:09:18;-8.60;99.40
20057;DHT22;10189;49.546;7.906;2022-12-18T09:11:44;-8.60;99.30
20057;DHT22;10189;49.546;7.906;2022-12-18T09:14:11;-8.50;99.20
20057;DHT22;10189;49.546;7.906;2022-12-18T09:16:36;-8.50;99.10
20057;DHT22;10189;49.546;7.906;2022-12-18T09:19:04;-8.50;98.70
20057;DHT22;10189;49.546;7.906;2022-12-18T09:21:33;-8.40;98.50
20057;DHT22;10189;49.546;7.906;2022-12-18T09:24:00;-8.30;99.10
20057;DHT22;10189;49.546;7.906;2022-12-18T09:26:26;-8.20;99.20
20057;DHT22;10189;49.546;7.906;2022-12-18T09:28:52;-8.10;99.90
20057;DHT22;10189;49.546;7.906;2022-12-18T09:31:21;-7.90;99.90
20057;DHT22;10189;49.546;7.906;2022-12-18T09:33:48;-7.70;99.90
20057;DHT22;10189;49.546;7.906;2022-12-18T09:36:15;-7.60;99.90
20057;DHT22;10189;49.546;7.906;2022-12-18T09:38:43;-7.60;99.90
20057;DHT22;10189;49.546;7.906;2022-12-18T09:44:25;-7.60;98.90
20057;DHT22;10189;49.546;7.906;2022-12-18T09:49:46;-7.50;99.50
20057;DHT22;10189;49.546;7.906;2022-12-18T09:52:34;-7.40;99.50
20057;DHT22;10189;49.546;7.906;2022-12-18T09:55:28;-7.20;99.40
20057;DHT22;10189;49.546;7.906;2022-12-18T10:00:35;-7.20;98.70
20057;DHT22;10189;49.546;7.906;2022-12-18T10:03:09;-7.20;98.60
20057;DHT22;10189;49.546;7.906;2022-12-18T10:06:04;-7.20;98.40
20057;DHT22;10189;49.546;7.906;2022-12-18T10:08:47;-7.40;97.00
20057;DHT22;10189;49.546;7.906;2022-12-18T10:14:54;-7.30;99.00
20057;DHT22;10189;49.546;7.906;2022-12-18T10:20:05;-7.30;96.80
20057;DHT22;10189;49.546;7.906;2022-12-18T10:28:16;-6.50;99.90
20057;DHT22;10189;49.546;7.906;2022-12-18T10:30:44;-6.30;99.60
20057;DHT22;10189;49.546;7.906;2022-12-18T10:33:13;-6.30;98.10
20057;DHT22;10189;49.546;7.906;2022-12-18T10:35:43;-6.00;99.80
20057;DHT22;10189;49.546;7.906;2022-12-18T10:40:52;-5.70;98.80
20057;DHT22;10189;49.546;7.906;2022-12-18T10:43:28;-5.90;96.20
20057;DHT22;10189;49.546;7.906;2022-12-18T10:54:04;-6.60;92.40
20057;DHT22;10189;49.546;7.906;2022-12-18T10:56:38;-6.70;92.60
20057;DHT22;10189;49.546;7.906;2022-12-18T10:59:06;-6.60;95.00
20057;DHT22;10189;49.546;7.906;2022-12-18T11:01:56;-6.50;95.60
20057;DHT22;10189;49.546;7.906;2022-12-18T11:04:27;-6.40;96.80
20057;DHT22;10189;49.546;7.906;2022-12-18T11:07:00;-6.50;93.40
20057;DHT22;10189;49.546;7.906;2022-12-18T11:09:35;-6.70;92.80
20057;DHT22;10189;49.546;7.906;2022-12-18T11:12:04;-6.90;92.80
20057;DHT22;10189;49.546;7.906;2022-12-18T11:22:59;-6.70;95.60
20057;DHT22;10189;49.546;7.906;2022-12-18T11:25:37;-6.70;96.10
20057;DHT22;10189;49.546;7.906;2022-12-18T11:28:06;-6.50;95.90
20057;DHT22;10189;49.546;7.906;2022-12-18T11:31:11;-6.60;93.60
20057;DHT22;10189;49.546;7.906;2022-12-18T11:33:51;-6.60;94.20
20057;DHT22;10189;49.546;7.906;2022-12-18T11:36:26;-6.70;93.60
20057;DHT22;10189;49.546;7.906;2022-12-18T11:39:00;-6.80;92.90
20057;DHT22;10189;49.546;7.906;2022-12-18T11:42:04;-6.80;94.80
20057;DHT22;10189;49.546;7.906;2022-12-18T11:44:59;-6.60;94.90
20057;DHT22;10189;49.546;7.906;2022-12-18T11:48:01;-6.60;93.70
20057;DHT22;10189;49.546;7.906;2022-12-18T11:50:56;-6.80;92.90
20057;DHT22;10189;49.546;7.906;2022-12-18T11:53:27;-7.00;93.60
20057;DHT22;10189;49.546;7.906;2022-12-18T11:56:26;-7.10;94.20
20057;DHT22;10189;49.546;7.906;2022-12-18T12:10:54;-6.70;94.50
20057;DHT22;10189;49.546;7.906;2022-12-18T12:13:49;-6.70;93.60
20057;DHT22;10189;49.546;7.906;2022-12-18T12:34:01;-6.50;92.20
20057;DHT22;10189;49.546;7.906;2022-12-18T12:39:40;-6.90;93.30
20057;DHT22;10189;49.546;7.906;2022-12-18T12:42:25;-6.70;94.90
20057;DHT22;10189;49.546;7.906;2022-12-18T12:46:14;-6.70;94.20
20057;DHT22;10189;49.546;7.906;2022-12-18T12:48:54;-6.60;94.20
20057;DHT22;10189;49.546;7.906;2022-12-18T12:51:30;-6.60;92.80
20057;DHT22;10189;49.546;7.906;2022-12-18T12:54:01;-6.60;93.30
20057;DHT22;10189;49.546;7.906;2022-12-18T12:56:36;-6.60;93.00
20057;DHT22;10189;49.546;7.906;2022-12-18T13:08:31;-6.30;92.70
20057;DHT22;10189;49.546;7.906;2022-12-18T13:11:43;-6.30;92.30
20057;DHT22;10189;49.546;7.906;2022-12-18T13:14:32;-6.30;92.70
20057;DHT22;10189;49.546;7.906;2022-12-18T13:19:51;-6.30;91.50
20057;DHT22;10189;49.546;7.906;2022-12-18T13:22:34;-6.30;92.20
20057;DHT22;10189;49.546;7.906;2022-12-18T13:25:36;-6.30;92.60
20057;DHT22;10189;49.546;7.906;2022-12-18T13:41:36;-6.10;92.70
20057;DHT22;10189;49.546;7.906;2022-12-18T13:46:59;-5.80;91.00
20057;DHT22;10189;49.546;7.906;2022-12-18T13:49:40;-5.90;89.60
20057;DHT22;10189;49.546;7.906;2022-12-18T13:52:26;-6.00;90.50
20057;DHT22;10189;49.546;7.906;2022-12-18T13:54:56;-6.00;90.90
20057;DHT22;10189;49.546;7.906;2022-12-18T13:57:37;-6.00;91.40
20057;DHT22;10189;49.546;7.906;2022-12-18T14:02:48;-6.00;91.20
20057;DHT22;10189;49.546;7.906;2022-12-18T14:05:27;-6.00;91.50
20057;DHT22;10189;49.546;7.906;2022-12-18T14:08:12;-6.10;91.40
20057;DHT22;10189;49.546;7.906;2022-12-18T14:10:45;-6.10;91.60
20057;DHT22;10189;49.546;7.906;2022-12-18T14:13:31;-6.10;91.50
20057;DHT22;10189;49.546;7.906;2022-12-18T14:16:07;-6.20;91.90
20057;DHT22;10189;49.546;7.906;2022-12-18T14:21:26;-6.20;92.50
20057;DHT22;10189;49.546;7.906;2022-12-18T14:24:12;-6.10;92.70
20057;DHT22;10189;49.546;7.906;2022-12-18T14:26:39;-6.20;92.40
20057;DHT22;10189;49.546;7.906;2022-12-18T14:29:21;-6.20;92.70
20057;DHT22;10189;49.546;7.906;2022-12-18T14:32:13;-6.20;92.80
20057;DHT22;10189;49.546;7.906;2022-12-18T14:34:51;-6.20;92.30
20057;DHT22;10189;49.546;7.906;2022-12-18T14:37:24;-6.30;92.60
20057;DHT22;10189;49.546;7.906;2022-12-18T14:39:56;-6.30;93.30
20057;DHT22;10189;49.546;7.906;2022-12-18T14:42:25;-6.40;93.60
20057;DHT22;10189;49.546;7.906;2022-12-18T14:47:58;-6.50;94.10
20057;DHT22;10189;49.546;7.906;2022-12-18T14:50:25;-6.50;94.80
20057;DHT22;10189;49.546;7.906;2022-12-18T14:52:52;-6.50;95.00
20057;DHT22;10189;49.546;7.906;2022-12-18T14:55:19;-6.50;94.70
20057;DHT22;10189;49.546;7.906;2022-12-18T14:57:51;-6.50;94.90
20057;DHT22;10189;49.546;7.906;2022-12-18T15:00:22;-6.50;94.90
20057;DHT22;10189;49.546;7.906;2022-12-18T15:02:53;-6.60;95.20
20057;DHT22;10189;49.546;7.906;2022-12-18T15:05:29;-6.60;95.30
20057;DHT22;10189;49.546;7.906;2022-12-18T15:07:58;-6.70;95.80
20057;DHT22;10189;49.546;7.906;2022-12-18T15:10:29;-6.60;95.70
20057;DHT22;10189;49.546;7.906;2022-12-18T15:20:44;-6.70;96.00
20057;DHT22;10189;49.546;7.906;2022-12-18T15:28:51;-6.70;96.40
20057;DHT22;10189;49.546;7.906;2022-12-18T15:31:31;-6.80;96.60
20057;DHT22;10189;49.546;7.906;2022-12-18T15:34:13;-6.80;97.20
20057;DHT22;10189;49.546;7.906;2022-12-18T15:36:45;-6.80;97.60
20057;DHT22;10189;49.546;7.906;2022-12-18T15:39:12;-6.70;96.90
20057;DHT22;10189;49.546;7.906;2022-12-18T15:41:39;-6.70;96.90
20057;DHT22;10189;49.546;7.906;2022-12-18T15:44:37;-6.80;97.00
20057;DHT22;10189;49.546;7.906;2022-12-18T15:47:09;-6.90;97.10
20057;DHT22;10189;49.546;7.906;2022-12-18T15:49:54;-7.00;97.50
20057;DHT22;10189;49.546;7.906;2022-12-18T15:52:19;-6.90;98.00
20057;DHT22;10189;49.546;7.906;2022-12-18T15:54:51;-6.90;97.60
20057;DHT22;10189;49.546;7.906;2022-12-18T15:57:35;-7.00;97.80
20057;DHT22;10189;49.546;7.906;2022-12-18T16:00:02;-6.90;97.50
20057;DHT22;10189;49.546;7.906;2022-12-18T16:02:30;-7.00;97.60
20057;DHT22;10189;49.546;7.906;2022-12-18T16:04:56;-7.00;98.30
20057;DHT22;10189;49.546;7.906;2022-12-18T16:07:22;-7.00;98.20
20057;DHT22;10189;49.546;7.906;2022-12-18T16:09:48;-6.90;97.90
20057;DHT22;10189;49.546;7.906;2022-12-18T16:12:17;-6.90;98.20
20057;DHT22;10189;49.546;7.906;2022-12-18T16:14:46;-6.80;97.90
20057;DHT22;10189;49.546;7.906;2022-12-18T16:17:13;-6.90;97.70
20057;DHT22;10189;49.546;7.906;2022-12-18T16:19:39;-6.90;97.20
20057;DHT22;10189;49.546;7.906;2022-12-18T16:22:05;-7.00;97.20
20057;DHT22;10189;49.546;7.906;2022-12-18T16:24:48;-7.00;97.30
20057;DHT22;10189;49.546;7.906;2022-12-18T16:27:15;-7.00;97.40
20057;DHT22;10189;49.546;7.906;2022-12-18T16:29:40;-7.00;97.50
20057;DHT22;10189;49.546;7.906;2022-12-18T16:32:08;-7.10;97.70
20057;DHT22;10189;49.546;7.906;2022-12-18T16:34:38;-7.00;98.20
20057;DHT22;10189;49.546;7.906;2022-12-18T16:37:06;-7.10;97.80
20057;DHT22;10189;49.546;7.906;2022-12-18T16:39:34;-7.10;97.80
20057;DHT22;10189;49.546;7.906;2022-12-18T16:42:03;-7.10;98.20
20057;DHT22;10189;49.546;7.906;2022-12-18T16:44:32;-7.10;98.20
20057;DHT22;10189;49.546;7.906;2022-12-18T16:47:00;-7.10;97.90
20057;DHT22;10189;49.546;7.906;2022-12-18T16:49:28;-7.10;97.70
20057;DHT22;10189;49.546;7.906;2022-12-18T16:51:54;-7.20;97.50
20057;DHT22;10189;49.546;7.906;2022-12-18T16:54:20;-7.20;97.80
20057;DHT22;10189;49.546;7.906;2022-12-18T16:56:46;-7.20;97.90
20057;DHT22;10189;49.546;7.906;2022-12-18T16:59:15;-7.30;97.90
20057;DHT22;10189;49.546;7.906;2022-12-18T17:01:41;-7.30;98.30
20057;DHT22;10189;49.546;7.906;2022-12-18T17:04:07;-7.20;98.60
20057;DHT22;10189;49.546;7.906;2022-12-18T17:06:38;-7.30;98.00
20057;DHT22;10189;49.546;7.906;2022-12-18T17:09:08;-7.30;98.70
20057;DHT22;10189;49.546;7.906;2022-12-18T17:11:40;-7.30;99.10
20057;DHT22;10189;49.546;7.906;2022-12-18T17:14:14;-7.20;99.20
20057;DHT22;10189;49.546;7.906;2022-12-18T17:16:42;-7.20;98.60
20057;DHT22;10189;49.546;7.906;2022-12-18T17:19:09;-7.20;97.80
20057;DHT22;10189;49.546;7.906;2022-12-18T17:21:35;-7.30;98.00
20057;DHT22;10189;49.546;7.906;2022-12-18T17:24:01;-7.30;98.40
20057;DHT22;10189;49.546;7.906;2022-12-18T17:26:28;-7.30;98.60
20057;DHT22;10189;49.546;7.906;2022-12-18T17:28:57;-7.30;98.80
20057;DHT22;10189;49.546;7.906;2022-12-18T17:31:26;-7.30;98.80
20057;DHT22;10189;49.546;7.906;2022-12-18T17:33:53;-7.30;98.80
20057;DHT22;10189;49.546;7.906;2022-12-18T17:36:20;-7.30;99.20
20057;DHT22;10189;49.546;7.906;2022-12-18T17:38:52;-7.30;99.40
20057;DHT22;10189;49.546;7.906;2022-12-18T17:41:21;-7.30;99.80
20057;DHT22;10189;49.546;7.906;2022-12-18T17:44:04;-7.10;99.60
20057;DHT22;10189;49.546;7.906;2022-12-18T17:46:32;-7.00;99.10
20057;DHT22;10189;49.546;7.906;2022-12-18T17:49:00;-6.90;98.40
20057;DHT22;10189;49.546;7.906;2022-12-18T17:51:28;-6.90;98.30
20057;DHT22;10189;49.546;7.906;2022-12-18T17:53:55;-6.90;98.00
20057;DHT22;10189;49.546;7.906;2022-12-18T17:56:22;-6.90;98.40
20057;DHT22;10189;49.546;7.906;2022-12-18T17:58:49;-6.90;98.20
20057;DHT22;10189;49.546;7.906;2022-12-18T18:01:20;-6.90;98.30
20057;DHT22;10189;49.546;7.906;2022-12-18T18:03:48;-6.70;98.50
20057;DHT22;10189;49.546;7.906;2022-12-18T18:06:15;-6.60;98.00
20057;DHT22;10189;49.546;7.906;2022-12-18T18:08:41;-6.60;97.40
20057;DHT22;10189;49.546;7.906;2022-12-18T18:11:11;-6.60;97.90
20057;DHT22;10189;49.546;7.906;2022-12-18T18:13:58;-6.60;97.50
20057;DHT22;10189;49.546;7.906;2022-12-18T18:16:40;-6.50;98.00